Time;durP1;ratioP1;P1;durP2;ratioP2;P2;SDS_P1;SDS_P2;PMS_P1;PMS_P2;Temp;Humidity;BMP_temperature;BMP_pressure;BME280_temperature;BME280_humidity;BME280_pressure;Samples;Min_cycle;Max_cycle;Signal;HPM_P1;HPM_P2
2021/01/30 00:00:29;;;;;;;10.77;6.90;;;256.20;2099.20;;;;;;5032240;28;20376;-58
2021/01/30 00:02:55;;;;;;;9.73;6.63;;;256.10;2099.20;;;;;;5032589;28;20010;-58
2021/01/30 00:05:21;;;;;;;8.90;6.47;;;256.10;2099.20;;;;;;5033109;28;20033;-59
2021/01/30 00:07:46;;;;;;;10.68;6.30;;;256.10;2099.20;;;;;;5033709;28;20049;-58
2021/01/30 00:10:13;;;;;;;10.55;6.78;;;256.00;2099.20;;;;;;5032671;28;20060;-59
2021/01/30 00:12:39;;;;;;;9.73;6.80;;;231.30;2124.80;;;;;;5032428;28;20342;-59
2021/01/30 00:15:06;;;;;;;8.55;5.78;;;231.30;2099.20;;;;;;5032638;28;20028;-58
2021/01/30 00:17:32;;;;;;;10.60;6.63;;;231.20;2124.80;;;;;;5032257;28;20064;-58
2021/01/30 00:19:58;;;;;;;9.80;6.65;;;231.20;2150.40;;;;;;5032591;28;20061;-58
2021/01/30 00:22:24;;;;;;;13.48;6.68;;;231.20;2150.40;;;;;;5032237;28;20026;-58
2021/01/30 00:24:50;;;;;;;12.30;6.97;;;231.20;2150.40;;;;;;5032844;28;20021;-59
2021/01/30 00:27:19;;;;;;;11.70;6.80;;;231.10;2150.40;;;;;;5032289;28;20393;-59
2021/01/30 00:29:45;;;;;;;;;;;231.10;2150.40;;;;;;5032858;28;20022;-59
2021/01/30 00:32:11;;;;;;;12.43;7.68;;;231.10;2150.40;;;;;;5032158;28;19920;-60
2021/01/30 00:34:40;;;;;;;10.48;7.28;;;231.00;2150.40;;;;;;5036086;28;20017;-59
2021/01/30 00:37:10;;;;;;;14.00;7.53;;;231.00;2176.00;;;;;;5045723;28;20035;-59
2021/01/30 00:39:37;;;;;;;14.32;7.43;;;231.00;2176.00;;;;;;5033644;28;20447;-59
2021/01/30 00:42:04;;;;;;;10.77;7.20;;;231.00;2176.00;;;;;;5045011;28;20480;-60
2021/01/30 00:44:30;;;;;;;12.63;7.45;;;230.90;2176.00;;;;;;5032313;28;20024;-60
2021/01/30 00:46:57;;;;;;;13.90;8.15;;;230.90;2176.00;;;;;;5038594;28;20045;-59
2021/01/30 00:49:24;;;;;;;13.50;8.18;;;230.80;2201.60;;;;;;5051984;28;20026;-60
2021/01/30 00:51:50;;;;;;;13.65;7.20;;;230.80;2201.60;;;;;;5052337;28;20025;-59
2021/01/30 00:54:16;;;;;;;12.32;6.93;;;230.80;2201.60;;;;;;5052021;28;20096;-59
2021/01/30 00:56:42;;;;;;;15.38;8.68;;;230.80;2201.60;;;;;;5052089;28;20032;-59
2021/01/30 00:59:08;;;;;;;14.30;8.43;;;230.80;2176.00;;;;;;5051914;28;20021;-59
2021/01/30 01:01:38;;;;;;;12.88;7.85;;;230.80;2201.60;;;;;;5051898;28;20028;-60
2021/01/30 01:04:05;;;;;;;14.35;8.45;;;230.80;2201.60;;;;;;5052129;28;20024;-60
2021/01/30 01:06:32;;;;;;;11.85;8.02;;;230.90;2201.60;;;;;;5051518;28;20833;-60
2021/01/30 01:08:58;;;;;;;14.48;8.15;;;230.90;2176.00;;;;;;5052246;28;20083;-60
2021/01/30 01:11:23;;;;;;;12.02;7.65;;;230.90;2176.00;;;;;;5051732;28;20033;-60
2021/01/30 01:13:50;;;;;;;15.00;8.02;;;231.00;2176.00;;;;;;5047920;28;20025;-60
2021/01/30 01:16:16;;;;;;;11.65;7.00;;;231.00;2176.00;;;;;;5051530;28;20032;-60
2021/01/30 01:18:42;;;;;;;10.45;6.97;;;231.00;2176.00;;;;;;5051852;28;20021;-60
2021/01/30 01:21:07;;;;;;;10.80;7.25;;;231.10;2150.40;;;;;;5051308;28;20483;-60
2021/01/30 01:23:33;;;;;;;11.73;7.40;;;231.10;2150.40;;;;;;5051609;28;20040;-59
2021/01/30 01:25:59;;;;;;;10.45;7.82;;;231.00;2150.40;;;;;;5051998;28;20410;-59
2021/01/30 01:28:24;;;;;;;12.77;8.82;;;231.00;2150.40;;;;;;5051490;28;20033;-60
2021/01/30 01:30:50;;;;;;;14.07;8.43;;;231.00;2176.00;;;;;;5051700;28;20033;-59
2021/01/30 01:33:16;;;;;;;13.63;8.88;;;231.00;2176.00;;;;;;5051893;28;20037;-59
2021/01/30 01:35:41;;;;;;;12.82;8.32;;;230.90;2176.00;;;;;;5051854;28;20111;-60
2021/01/30 01:38:07;;;;;;;13.45;8.85;;;230.90;2176.00;;;;;;5051388;28;20364;-60
2021/01/30 01:40:39;;;;;;;13.82;8.88;;;231.00;2176.00;;;;;;5051928;28;20021;-59
2021/01/30 01:43:10;;;;;;;13.45;8.57;;;230.90;2176.00;;;;;;5051311;28;20050;-59
2021/01/30 01:45:36;;;;;;;15.25;10.10;;;230.80;2176.00;;;;;;5051583;28;20110;-59
2021/01/30 01:48:07;;;;;;;13.93;8.57;;;230.80;2201.60;;;;;;5051408;28;20048;-59
2021/01/30 01:50:45;;;;;;;14.32;8.63;;;230.70;2201.60;;;;;;5055080;28;20025;-59
2021/01/30 01:53:18;;;;;;;14.40;10.35;;;230.70;2201.60;;;;;;5055361;28;20021;-59
2021/01/30 01:55:49;;;;;;;17.15;9.55;;;230.70;2227.20;;;;;;5055232;28;20041;-60
2021/01/30 01:58:18;;;;;;;14.48;9.43;;;230.70;2227.20;;;;;;5055295;28;20060;-60
2021/01/30 02:00:48;;;;;;;15.63;9.75;;;230.60;2227.20;;;;;;5055550;28;20116;-59
2021/01/30 02:03:15;;;;;;;19.42;11.65;;;230.60;2227.20;;;;;;5054893;28;20044;-58
2021/01/30 02:05:41;;;;;;;17.70;10.65;;;230.50;2252.80;;;;;;5053934;28;20388;-57
2021/01/30 02:08:10;;;;;;;18.17;11.38;;;230.50;2252.80;;;;;;5050828;28;20060;-57
2021/01/30 02:10:45;;;;;;;18.42;11.25;;;230.40;2252.80;;;;;;5055509;28;20025;-58
2021/01/30 02:13:25;;;;;;;18.10;11.68;;;205.70;2252.80;;;;;;5055144;28;20017;-57
2021/01/30 02:16:15;;;;;;;19.85;12.18;;;205.60;2252.80;;;;;;5054503;28;20131;-58
2021/01/30 02:18:55;;;;;;;18.98;11.45;;;205.60;2252.80;;;;;;5032166;28;20046;-58
2021/01/30 02:21:36;;;;;;;21.05;11.30;;;205.60;2252.80;;;;;;5033116;28;20041;-58
2021/01/30 02:24:17;;;;;;;21.95;12.13;;;205.50;2252.80;;;;;;5032477;28;20037;-58
2021/01/30 02:27:02;;;;;;;21.90;12.85;;;205.50;2252.80;;;;;;5032758;28;20036;-59
2021/01/30 02:29:54;;;;;;;19.02;12.55;;;205.50;2252.80;;;;;;5032324;28;20029;-58
2021/01/30 02:32:30;;;;;;;19.42;11.52;;;205.40;2252.80;;;;;;5032145;28;20032;-57
2021/01/30 02:34:59;;;;;;;22.85;12.30;;;205.40;2252.80;;;;;;5032496;28;20068;-58
2021/01/30 02:37:31;;;;;;;18.67;12.23;;;205.30;2252.80;;;;;;5032339;28;20053;-58
2021/01/30 02:40:14;;;;;;;21.60;13.18;;;205.30;2252.80;;;;;;5032245;28;20041;-58
2021/01/30 02:42:47;;;;;;;17.55;11.65;;;205.30;2252.80;;;;;;5031991;28;20044;-58
2021/01/30 02:45:18;;;;;;;19.35;11.13;;;205.30;2252.80;;;;;;5032429;28;20482;-58
2021/01/30 02:47:49;;;;;;;15.88;10.27;;;205.30;2252.80;;;;;;5031716;28;20045;-58
2021/01/30 02:50:19;;;;;;;14.48;9.95;;;205.40;2252.80;;;;;;5031854;28;20065;-58
2021/01/30 02:52:49;;;;;;;17.58;10.35;;;205.30;2252.80;;;;;;5032201;28;20029;-58
2021/01/30 02:55:17;;;;;;;13.38;9.13;;;205.40;2252.80;;;;;;5038303;28;20033;-58
2021/01/30 02:57:45;;;;;;;15.02;10.45;;;205.50;2252.80;;;;;;5054254;28;20483;-58
2021/01/30 03:00:15;;;;;;;16.05;10.82;;;205.50;2252.80;;;;;;5053529;28;20136;-58
2021/01/30 03:02:41;;;;;;;16.65;10.68;;;205.40;2252.80;;;;;;5050304;28;20029;-58
2021/01/30 03:05:10;;;;;;;17.85;11.02;;;205.40;2252.80;;;;;;5052785;28;20548;-58
2021/01/30 03:07:56;;;;;;;14.52;9.73;;;205.40;2252.80;;;;;;5053016;28;20041;-58
2021/01/30 03:10:31;;;;;;;18.85;11.02;;;205.50;2252.80;;;;;;5053755;28;20021;-60
2021/01/30 03:13:06;;;;;;;15.88;10.70;;;205.40;2252.80;;;;;;5053876;28;20025;-59
2021/01/30 03:16:07;;;;;;;17.33;10.85;;;205.40;2252.80;;;;;;5053876;28;20013;-58
2021/01/30 03:18:35;;;;;;;15.68;11.18;;;205.50;2252.80;;;;;;5031085;28;20079;-58
2021/01/30 03:21:04;;;;;;;18.25;11.60;;;205.40;2252.80;;;;;;5031655;28;20029;-58
2021/01/30 03:23:29;;;;;;;;;;;205.50;2252.80;;;;;;5032059;28;20395;-60
2021/01/30 03:25:59;;;;;;;20.13;11.75;;;205.50;2252.80;;;;;;5031943;28;19916;-58
2021/01/30 03:28:25;;;;;;;20.70;12.68;;;205.40;2252.80;;;;;;5031176;28;20128;-59
2021/01/30 03:30:51;;;;;;;18.92;12.00;;;205.50;2252.80;;;;;;5031846;28;20471;-58
2021/01/30 03:33:16;;;;;;;18.95;12.07;;;205.40;2252.80;;;;;;5016267;28;20033;-59
2021/01/30 03:35:42;;;;;;;19.48;12.35;;;205.40;2252.80;;;;;;5011648;28;20100;-57
2021/01/30 03:38:08;;;;;;;22.42;13.43;;;205.40;2252.80;;;;;;5011301;28;20107;-58
2021/01/30 03:40:34;;;;;;;20.23;13.48;;;205.40;2252.80;;;;;;5011454;28;20384;-57
2021/01/30 03:42:59;;;;;;;19.52;13.35;;;205.50;2252.80;;;;;;5011683;28;20132;-58
2021/01/30 03:45:28;;;;;;;21.90;14.77;;;205.50;2252.80;;;;;;5011470;28;20127;-58
2021/01/30 03:47:54;;;;;;;;;;;205.50;2252.80;;;;;;5011871;28;20092;-58
2021/01/30 03:50:21;;;;;;;21.65;13.27;;;205.50;2252.80;;;;;;5011127;28;20597;-58
2021/01/30 03:52:47;;;;;;;22.10;13.60;;;205.50;2252.80;;;;;;5011149;28;20033;-58
2021/01/30 03:55:13;;;;;;;19.60;13.57;;;205.60;2252.80;;;;;;5024675;28;20038;-57
2021/01/30 03:57:39;;;;;;;20.13;13.32;;;205.50;2252.80;;;;;;5033132;28;20030;-58
2021/01/30 04:00:07;;;;;;;21.00;13.55;;;205.50;2252.80;;;;;;5032948;28;20026;-58
2021/01/30 04:02:33;;;;;;;22.50;14.15;;;205.50;2252.80;;;;;;5033021;28;20030;-58
2021/01/30 04:04:59;;;;;;;23.92;15.05;;;205.50;2252.80;;;;;;5032800;28;20040;-58
2021/01/30 04:07:24;;;;;;;19.88;13.25;;;205.50;2252.80;;;;;;5032234;28;20059;-58
2021/01/30 04:09:50;;;;;;;19.45;13.85;;;205.50;2252.80;;;;;;5031616;28;20114;-59
2021/01/30 04:12:16;;;;;;;20.23;13.07;;;205.50;2252.80;;;;;;5032031;28;20456;-56
2021/01/30 04:14:41;;;;;;;24.50;14.85;;;205.60;2252.80;;;;;;5032925;28;20017;-59
2021/01/30 04:17:09;;;;;;;22.17;14.00;;;205.60;2252.80;;;;;;5032557;28;20029;-59
2021/01/30 04:19:37;;;;;;;21.27;13.25;;;205.60;2252.80;;;;;;5032465;28;20017;-59
2021/01/30 04:22:04;;;;;;;21.23;13.75;;;205.60;2252.80;;;;;;5032816;28;20049;-58
2021/01/30 04:24:30;;;;;;;19.95;13.00;;;205.60;2252.80;;;;;;5032635;28;20029;-58
2021/01/30 04:26:56;;;;;;;21.92;13.63;;;205.60;2252.80;;;;;;5032307;28;20515;-59
2021/01/30 04:29:22;;;;;;;21.30;13.93;;;205.60;2252.80;;;;;;5032650;28;20096;-60
2021/01/30 04:31:53;;;;;;;24.27;14.35;;;205.60;2252.80;;;;;;5032451;28;20044;-59
2021/01/30 04:34:19;;;;;;;23.30;15.27;;;205.60;2252.80;;;;;;5031971;28;20030;-59
2021/01/30 04:36:45;;;;;;;20.00;14.55;;;205.60;2252.80;;;;;;5032588;28;20029;-59
2021/01/30 04:39:10;;;;;;;25.38;15.10;;;205.60;2252.80;;;;;;5032223;28;20052;-65
2021/01/30 04:42:15;;;;;;;19.77;14.13;;;205.60;2252.80;;;;;;5032568;28;20380;-59
2021/01/30 04:44:52;;;;;;;21.23;13.15;;;205.60;2252.80;;;;;;5032448;28;20396;-59
2021/01/30 04:47:36;;;;;;;21.23;14.05;;;205.60;2252.80;;;;;;5031956;28;20024;-59
2021/01/30 04:50:22;;;;;;;19.58;13.52;;;205.60;2252.80;;;;;;5032229;28;20033;-59
2021/01/30 04:52:57;;;;;;;21.98;14.52;;;205.60;2252.80;;;;;;5021362;28;20040;-58
2021/01/30 04:55:46;;;;;;;18.17;13.68;;;205.60;2252.80;;;;;;5031805;28;20033;-59
2021/01/30 04:58:14;;;;;;;22.05;14.02;;;205.60;2252.80;;;;;;5029799;28;20500;-59
2021/01/30 05:01:17;;;;;;;21.60;15.27;;;205.50;2252.80;;;;;;5030174;28;20065;-59
2021/01/30 05:04:15;;;;;;;20.83;14.55;;;205.50;2252.80;;;;;;4970961;28;20039;-59
2021/01/30 05:07:09;;;;;;;19.53;13.63;;;205.40;2252.80;;;;;;4971044;28;20070;-59
2021/01/30 05:09:55;;;;;;;18.67;13.27;;;205.30;2252.80;;;;;;4969931;28;20396;-59
2021/01/30 05:12:48;;;;;;;19.92;12.57;;;205.30;2252.80;;;;;;4970497;28;20103;-59
2021/01/30 05:15:26;;;;;;;20.27;13.80;;;205.30;2252.80;;;;;;4970743;28;20118;-59
2021/01/30 05:17:52;;;;;;;20.55;13.88;;;205.10;2252.80;;;;;;4971077;28;20042;-59
2021/01/30 05:20:19;;;;;;;19.58;13.23;;;205.20;2252.80;;;;;;4970918;28;20425;-59
2021/01/30 05:22:46;;;;;;;17.58;12.95;;;205.10;2252.80;;;;;;4971466;28;20046;-59
2021/01/30 05:25:18;;;;;;;19.65;12.77;;;205.10;2252.80;;;;;;4975007;28;20031;-59
2021/01/30 05:27:58;;;;;;;18.92;12.30;;;205.10;2252.80;;;;;;4974370;28;20089;-59
2021/01/30 05:30:29;;;;;;;19.33;13.18;;;205.10;2252.80;;;;;;4974697;28;20037;-59
2021/01/30 05:33:30;;;;;;;18.90;13.13;;;205.00;2252.80;;;;;;4973799;28;20033;-59
2021/01/30 05:36:13;;;;;;;19.75;13.18;;;205.00;2252.80;;;;;;4985817;28;20536;-59
2021/01/30 05:38:53;;;;;;;21.10;13.38;;;205.00;2252.80;;;;;;4961224;28;20441;-58
2021/01/30 05:42:01;;;;;;;19.88;13.27;;;205.00;2252.80;;;;;;5024038;28;20083;-59
2021/01/30 05:44:45;;;;;;;16.50;11.98;;;205.00;2252.80;;;;;;5035556;28;20135;-59
2021/01/30 05:47:20;;;;;;;20.02;13.05;;;205.00;2252.80;;;;;;5022709;28;20396;-59
2021/01/30 05:50:14;;;;;;;17.80;11.95;;;205.00;2252.80;;;;;;5035319;28;20071;-59
2021/01/30 05:52:40;;;;;;;18.08;11.90;;;205.00;2252.80;;;;;;5033527;28;20168;-59
2021/01/30 05:55:22;;;;;;;18.90;12.48;;;205.00;2252.80;;;;;;5032965;28;20510;-59
2021/01/30 05:57:49;;;;;;;19.23;12.32;;;204.90;2252.80;;;;;;5032954;28;20041;-59
2021/01/30 06:00:19;;;;;;;22.83;12.82;;;205.00;2252.80;;;;;;5032740;28;20079;-59
2021/01/30 06:03:05;;;;;;;15.77;11.77;;;204.90;2252.80;;;;;;5031598;28;20026;-59
2021/01/30 06:05:39;;;;;;;17.48;11.70;;;204.90;2252.80;;;;;;5031617;28;20109;-59
2021/01/30 06:08:16;;;;;;;15.63;10.00;;;205.00;2252.80;;;;;;5032157;28;20076;-59
2021/01/30 06:10:43;;;;;;;15.75;10.48;;;205.00;2252.80;;;;;;5032621;28;20033;-59
2021/01/30 06:13:14;;;;;;;15.75;10.90;;;205.10;2252.80;;;;;;5032819;28;20097;-59
2021/01/30 06:15:43;;;;;;;16.17;10.45;;;205.10;2252.80;;;;;;5032712;28;20490;-58
2021/01/30 06:18:16;;;;;;;15.90;10.45;;;205.10;2252.80;;;;;;5018997;28;20036;-59
2021/01/30 06:20:54;;;;;;;13.48;9.57;;;205.10;2252.80;;;;;;5032993;28;20106;-59
2021/01/30 06:23:20;;;;;;;15.68;9.98;;;205.20;2252.80;;;;;;5032475;28;20029;-58
2021/01/30 06:25:46;;;;;;;16.40;9.98;;;205.20;2252.80;;;;;;5032809;28;20032;-59
2021/01/30 06:28:14;;;;;;;15.07;9.65;;;205.20;2252.80;;;;;;5032398;28;20029;-59
2021/01/30 06:30:45;;;;;;;14.48;9.93;;;205.20;2252.80;;;;;;5027115;28;20041;-59
2021/01/30 06:33:33;;;;;;;14.40;9.85;;;205.30;2252.80;;;;;;5034866;28;20025;-59
2021/01/30 06:36:13;;;;;;;16.13;10.30;;;205.40;2252.80;;;;;;5033795;28;20486;-58
2021/01/30 06:38:43;;;;;;;16.08;11.05;;;205.40;2252.80;;;;;;5021461;28;20087;-59
2021/01/30 06:41:29;;;;;;;14.32;9.82;;;205.40;2252.80;;;;;;5033072;28;20025;-59
2021/01/30 06:44:23;;;;;;;13.55;10.10;;;205.40;2252.80;;;;;;5034402;28;20041;-59
2021/01/30 06:47:21;;;;;;;13.63;10.10;;;205.50;2252.80;;;;;;5022502;28;20431;-59
2021/01/30 06:49:50;;;;;;;16.75;9.55;;;205.50;2252.80;;;;;;5034301;28;20029;-58
2021/01/30 06:52:23;;;;;;;12.70;9.75;;;205.50;2252.80;;;;;;5033990;28;20027;-59
2021/01/30 06:55:12;;;;;;;15.45;10.43;;;205.60;2227.20;;;;;;5034302;28;20032;-59
2021/01/30 06:57:49;;;;;;;17.02;10.10;;;205.60;2227.20;;;;;;5033957;28;20097;-59
2021/01/30 07:00:17;;;;;;;16.75;10.98;;;205.70;2227.20;;;;;;5034486;28;20037;-59
2021/01/30 07:02:46;;;;;;;13.30;9.77;;;205.70;2227.20;;;;;;5035033;28;20086;-59
2021/01/30 07:05:23;;;;;;;16.05;9.75;;;205.70;2227.20;;;;;;5054773;28;20029;-59
2021/01/30 07:08:17;;;;;;;14.77;9.30;;;230.40;2201.60;;;;;;5053491;28;20056;-58
2021/01/30 07:11:11;;;;;;;16.58;10.30;;;230.40;2201.60;;;;;;5054204;28;20391;-58
2021/01/30 07:13:56;;;;;;;14.10;9.68;;;230.40;2201.60;;;;;;5053607;28;20032;-58
2021/01/30 07:16:45;;;;;;;16.02;10.38;;;230.50;2201.60;;;;;;5053929;28;20440;-58
2021/01/30 07:19:39;;;;;;;11.32;8.20;;;230.50;2176.00;;;;;;5050311;28;20033;-58
2021/01/30 07:22:16;;;;;;;14.18;10.15;;;230.50;2176.00;;;;;;5053969;28;20468;-58
2021/01/30 07:24:49;;;;;;;17.35;10.10;;;230.50;2176.00;;;;;;5050447;28;20096;-58
2021/01/30 07:27:45;;;;;;;18.42;10.40;;;230.60;2176.00;;;;;;5035880;28;20034;-58
2021/01/30 07:30:18;;;;;;;39.65;13.65;;;230.80;2252.80;;;;;;5033851;28;20018;-58
2021/01/30 07:32:58;;;;;;;27.48;11.20;;;230.70;2150.40;;;;;;5033349;28;20074;-58
2021/01/30 07:35:36;;;;;;;50.15;14.48;;;230.70;2150.40;;;;;;5023427;28;20051;-58
2021/01/30 07:38:11;;;;;;;19.20;10.40;;;230.80;2150.40;;;;;;5033371;28;20078;-58
2021/01/30 07:41:14;;;;;;;14.93;9.43;;;230.70;2150.40;;;;;;5031535;28;20043;-58
2021/01/30 07:43:46;;;;;;;19.13;9.82;;;230.70;2150.40;;;;;;5009037;28;20037;-59
2021/01/30 07:46:19;;;;;;;17.80;11.75;;;230.70;2150.40;;;;;;5010051;28;20451;-58
2021/01/30 07:48:50;;;;;;;17.00;10.55;;;230.70;2176.00;;;;;;5008182;28;20049;-59
2021/01/30 07:51:21;;;;;;;16.50;10.50;;;230.70;2176.00;;;;;;5008434;28;20018;-60
2021/01/30 07:53:47;;;;;;;16.17;11.45;;;230.70;2150.40;;;;;;5007011;28;20447;-58
2021/01/30 07:56:19;;;;;;;18.30;11.48;;;230.70;2150.40;;;;;;5009795;28;20072;-58
2021/01/30 07:59:21;;;;;;;19.85;11.30;;;230.70;2150.40;;;;;;5009934;28;20042;-59
2021/01/30 08:02:08;;;;;;;14.20;10.20;;;230.80;2150.40;;;;;;5008737;28;20193;-58
2021/01/30 08:04:55;;;;;;;14.77;10.20;;;230.80;2150.40;;;;;;5008550;28;20112;-59
2021/01/30 08:07:45;;;;;;;17.45;11.07;;;230.80;2150.40;;;;;;5006241;28;20193;-57
2021/01/30 08:10:16;;;;;;;16.20;11.10;;;230.90;2124.80;;;;;;5008868;28;20030;-59
2021/01/30 08:13:06;;;;;;;15.23;10.90;;;230.90;2124.80;;;;;;5008408;28;20030;-58
2021/01/30 08:15:43;;;;;;;17.98;10.77;;;230.90;2124.80;;;;;;5007058;28;20373;-58
2021/01/30 08:18:27;;;;;;;15.48;9.85;;;231.00;2124.80;;;;;;5008189;28;20053;-58
2021/01/30 08:21:07;;;;;;;14.77;10.20;;;231.10;2124.80;;;;;;5027318;28;20044;-60
2021/01/30 08:23:45;;;;;;;15.18;10.20;;;231.20;2099.20;;;;;;5032303;28;20026;-58
2021/01/30 08:26:39;;;;;;;18.52;10.65;;;231.20;2099.20;;;;;;5030717;28;20498;-58
2021/01/30 08:29:11;;;;;;;13.32;9.52;;;231.30;2073.60;;;;;;5032458;28;20025;-60
2021/01/30 08:31:46;;;;;;;15.13;10.30;;;231.30;2073.60;;;;;;5032522;28;20056;-58
2021/01/30 08:34:17;;;;;;;14.48;10.18;;;231.30;2073.60;;;;;;5049334;28;20019;-60
2021/01/30 08:36:54;;;;;;;13.15;9.30;;;231.30;2073.60;;;;;;5052340;28;20474;-59
2021/01/30 08:39:33;;;;;;;16.17;10.25;;;256.10;2073.60;;;;;;5049132;28;20029;-58
2021/01/30 08:41:58;;;;;;;;;;;256.00;2073.60;;;;;;5033639;28;20037;-59
2021/01/30 08:44:36;;;;;;;16.45;10.50;;;256.00;2073.60;;;;;;5031342;28;19909;-59
2021/01/30 08:47:19;;;;;;;14.57;11.00;;;256.00;2073.60;;;;;;5030294;28;20025;-59
2021/01/30 08:49:57;;;;;;;15.30;10.32;;;256.10;2073.60;;;;;;5037925;28;20044;-60
2021/01/30 08:52:37;;;;;;;17.40;11.23;;;256.10;2048.00;;;;;;5047899;28;20021;-57
2021/01/30 08:55:30;;;;;;;13.60;10.25;;;256.20;2048.00;;;;;;5026433;28;20129;-55
2021/01/30 08:57:57;;;;;;;15.18;10.80;;;256.30;2048.00;;;;;;5043675;28;20421;-55
2021/01/30 09:00:25;;;;;;;22.58;12.93;;;256.40;2022.40;;;;;;5049339;28;20031;-57
2021/01/30 09:02:53;;;;;;;16.70;11.00;;;256.50;2022.40;;;;;;5040572;28;20031;-56
2021/01/30 09:05:22;;;;;;;16.73;10.20;;;256.60;1996.80;;;;;;5032009;28;20123;-55
2021/01/30 09:07:51;;;;;;;15.45;10.82;;;256.70;1996.80;;;;;;5031548;28;20061;-55
2021/01/30 09:10:39;;;;;;;14.82;11.25;;;256.80;1971.20;;;;;;5031944;28;20184;-55
2021/01/30 09:13:10;;;;;;;16.30;10.73;;;281.60;1996.80;;;;;;5026847;28;20036;-55
2021/01/30 09:15:41;;;;;;;16.83;10.73;;;281.70;1945.60;;;;;;5031906;28;20474;-55
2021/01/30 09:18:36;;;;;;;27.02;11.73;;;281.60;1971.20;;;;;;5029149;28;20060;-56
2021/01/30 09:21:11;;;;;;;26.45;12.07;;;281.60;1945.60;;;;;;5027985;28;20068;-56
2021/01/30 09:23:46;;;;;;;34.35;11.55;;;281.70;1945.60;;;;;;5031416;28;20017;-56
2021/01/30 09:26:48;;;;;;;23.50;10.68;;;281.70;1945.60;;;;;;5051579;28;20517;-56
2021/01/30 09:29:25;;;;;;;39.40;10.00;;;281.80;1920.00;;;;;;5015014;28;20072;-56
2021/01/30 09:31:58;;;;;;;19.38;8.10;;;281.90;1920.00;;;;;;5031582;28;20072;-57
2021/01/30 09:34:27;;;;;;;18.17;8.02;;;281.90;1920.00;;;;;;5031449;28;20057;-56
2021/01/30 09:36:53;;;;;;;26.42;9.05;;;281.90;1920.00;;;;;;5031792;28;20606;-56
2021/01/30 09:39:22;;;;;;;25.27;9.05;;;281.90;1920.00;;;;;;5031849;28;20026;-56
2021/01/30 09:41:48;;;;;;;14.10;7.35;;;281.90;1920.00;;;;;;5031240;28;20053;-56
2021/01/30 09:44:25;;;;;;;31.10;9.40;;;281.90;1920.00;;;;;;5031611;28;20072;-56
2021/01/30 09:47:00;;;;;;;19.63;8.10;;;282.10;1920.00;;;;;;5031764;28;20030;-56
2021/01/30 09:49:33;;;;;;;13.80;8.20;;;282.10;1894.40;;;;;;5031163;28;20026;-56
2021/01/30 09:52:00;;;;;;;14.35;8.95;;;282.20;1894.40;;;;;;5031578;28;20026;-57
2021/01/30 09:54:28;;;;;;;15.27;8.00;;;282.20;1894.40;;;;;;5031086;28;20104;-56
2021/01/30 09:57:02;;;;;;;11.52;8.13;;;282.30;1894.40;;;;;;5031817;28;20034;-57
2021/01/30 09:59:29;;;;;;;47.45;12.45;;;282.40;1894.40;;;;;;5031277;28;20084;-57
2021/01/30 10:02:10;;;;;;;16.58;8.90;;;282.40;1894.40;;;;;;5031405;28;20021;-57
2021/01/30 10:04:35;;;;;;;12.00;7.38;;;307.30;1945.60;;;;;;5031441;28;20495;-58
2021/01/30 10:07:08;;;;;;;12.35;7.30;;;307.40;1868.80;;;;;;5031258;28;20076;-57
2021/01/30 10:09:40;;;;;;;19.73;8.23;;;307.40;1843.20;;;;;;5029257;28;20072;-57
2021/01/30 10:12:06;;;;;;;10.65;7.05;;;307.40;1843.20;;;;;;5024456;28;20384;-57
2021/01/30 10:14:37;;;;;;;10.20;6.63;;;307.40;1843.20;;;;;;5016864;28;20018;-58
2021/01/30 10:17:29;;;;;;;9.23;6.07;;;307.20;1843.20;;;;;;5023563;28;20053;-58
2021/01/30 10:20:00;;;;;;;10.18;6.05;;;307.20;1868.80;;;;;;5035682;28;20109;-57
2021/01/30 10:22:39;;;;;;;10.25;6.45;;;307.20;1868.80;;;;;;5035011;28;20013;-57
2021/01/30 10:25:18;;;;;;;8.73;5.72;;;307.20;1843.20;;;;;;5034976;28;20026;-56
2021/01/30 10:27:44;;;;;;;;;;;307.20;1843.20;;;;;;5034180;28;20248;-57
2021/01/30 10:30:13;;;;;;;9.18;5.47;;;307.30;1843.20;;;;;;5034901;28;19905;-57
2021/01/30 10:32:50;;;;;;;10.38;5.50;;;307.30;1817.60;;;;;;5034765;28;20056;-56
2021/01/30 10:35:22;;;;;;;11.05;6.35;;;307.40;1817.60;;;;;;5034803;28;20061;-56
2021/01/30 10:38:15;;;;;;;9.15;6.18;;;307.40;1843.20;;;;;;5034616;28;20509;-57
2021/01/30 10:40:49;;;;;;;9.45;5.93;;;307.40;1817.60;;;;;;5034542;28;20025;-57
2021/01/30 10:43:33;;;;;;;10.25;6.75;;;307.60;1792.00;;;;;;5034483;28;20416;-57
2021/01/30 10:46:06;;;;;;;12.60;6.95;;;307.60;1817.60;;;;;;5034321;28;20084;-57
2021/01/30 10:48:37;;;;;;;12.77;7.13;;;307.60;1792.00;;;;;;5034496;28;20034;-59
2021/01/30 10:51:23;;;;;;;12.55;7.85;;;307.50;1817.60;;;;;;5034102;28;20017;-59
2021/01/30 10:53:49;;;;;;;8.75;6.75;;;307.50;1817.60;;;;;;5034132;28;20124;-56
2021/01/30 10:56:21;;;;;;;12.70;6.75;;;307.70;1792.00;;;;;;5034429;28;20064;-57
2021/01/30 10:58:48;;;;;;;10.85;5.15;;;307.80;1792.00;;;;;;5034180;28;20026;-57
2021/01/30 11:01:17;;;;;;;18.20;5.70;;;307.80;1766.40;;;;;;5034287;28;20013;-56
2021/01/30 11:03:47;;;;;;;11.82;5.40;;;308.00;1740.80;;;;;;5034056;28;20025;-57
2021/01/30 11:06:48;;;;;;;13.63;5.47;;;308.10;1740.80;;;;;;5034166;28;20442;-57
2021/01/30 11:09:16;;;;;;;11.85;4.90;;;332.80;1766.40;;;;;;5033730;28;20602;-57
2021/01/30 11:11:43;;;;;;;16.13;5.80;;;333.10;1715.20;;;;;;5034005;28;20052;-57
2021/01/30 11:14:35;;;;;;;11.15;5.63;;;333.10;1715.20;;;;;;5033931;28;20032;-57
2021/01/30 11:17:04;;;;;;;10.07;4.63;;;333.10;1715.20;;;;;;5032912;28;20041;-57
2021/01/30 11:19:32;;;;;;;7.47;4.13;;;333.10;1689.60;;;;;;5033676;28;20136;-56
2021/01/30 11:22:17;;;;;;;12.02;4.82;;;333.30;1689.60;;;;;;5042501;28;20031;-56
2021/01/30 11:24:49;;;;;;;11.98;4.78;;;333.30;1664.00;;;;;;5049952;28;20075;-56
2021/01/30 11:27:33;;;;;;;11.15;5.00;;;333.40;1638.40;;;;;;5046947;28;20041;-56
2021/01/30 11:30:28;;;;;;;9.13;4.30;;;333.50;1638.40;;;;;;5041395;28;20471;-56
2021/01/30 11:32:59;;;;;;;9.90;5.13;;;333.50;1638.40;;;;;;5035410;28;20034;-57
2021/01/30 11:35:36;;;;;;;10.80;4.25;;;333.60;1612.80;;;;;;5033516;28;20080;-56
2021/01/30 11:38:19;;;;;;;5.32;3.08;;;333.60;1612.80;;;;;;5037069;28;20036;-57
2021/01/30 11:40:46;;;;;;;11.75;4.97;;;333.50;1612.80;;;;;;5040954;28;20029;-57
2021/01/30 11:43:13;;;;;;;8.30;4.32;;;333.60;1612.80;;;;;;5032835;28;20464;-57
2021/01/30 11:45:39;;;;;;;6.93;4.13;;;333.30;1638.40;;;;;;5033772;28;20079;-57
2021/01/30 11:48:05;;;;;;;7.15;3.33;;;333.30;1638.40;;;;;;5033086;28;20034;-61
2021/01/30 11:50:31;;;;;;;9.35;4.93;;;333.40;1612.80;;;;;;5033208;28;20522;-57
2021/01/30 11:53:10;;;;;;;11.18;4.63;;;333.20;1638.40;;;;;;5032927;28;20076;-57
2021/01/30 11:55:38;;;;;;;7.07;4.22;;;333.30;1638.40;;;;;;5040836;28;20380;-56
2021/01/30 11:58:03;;;;;;;9.30;4.10;;;333.20;1638.40;;;;;;5038636;28;20026;-57
2021/01/30 12:00:29;;;;;;;6.70;3.65;;;333.30;1638.40;;;;;;5033284;28;20032;-57
2021/01/30 12:02:55;;;;;;;5.40;2.97;;;333.30;1638.40;;;;;;5033151;28;20096;-56
2021/01/30 12:05:20;;;;;;;4.95;2.40;;;333.40;1612.80;;;;;;5032552;28;20057;-55
2021/01/30 12:07:46;;;;;;;4.05;2.78;;;333.20;1612.80;;;;;;5032652;28;20107;-57
2021/01/30 12:10:12;;;;;;;5.30;3.38;;;333.20;1638.40;;;;;;5032780;28;20476;-57
2021/01/30 12:12:38;;;;;;;5.82;3.25;;;333.40;1638.40;;;;;;5032735;28;20104;-57
2021/01/30 12:15:06;;;;;;;4.82;3.05;;;333.40;1612.80;;;;;;5032709;28;20109;-58
2021/01/30 12:17:39;;;;;;;6.60;4.00;;;333.50;1612.80;;;;;;5032736;28;20017;-55
2021/01/30 12:20:08;;;;;;;5.20;2.88;;;333.40;1638.40;;;;;;5033000;28;20033;-58
2021/01/30 12:22:34;;;;;;;7.50;3.15;;;333.60;1612.80;;;;;;5038643;28;20048;-56
2021/01/30 12:25:01;;;;;;;7.97;3.53;;;333.70;1587.20;;;;;;5039415;28;20057;-59
2021/01/30 12:27:27;;;;;;;6.95;3.33;;;358.40;1587.20;;;;;;5036153;28;20041;-58
2021/01/30 12:29:53;;;;;;;6.72;3.78;;;358.50;1587.20;;;;;;5052461;28;20372;-56
2021/01/30 12:32:19;;;;;;;5.53;3.35;;;358.60;1561.60;;;;;;5036690;28;20033;-57
2021/01/30 12:34:45;;;;;;;6.93;3.47;;;358.70;1536.00;;;;;;5032365;28;20032;-59
2021/01/30 12:37:11;;;;;;;6.55;4.07;;;358.60;1536.00;;;;;;5046917;28;20029;-57